sensor_id;sensor_type;location;lat;lon;timestamp;P1;durP1;ratioP1;P2;durP2;ratioP2
59685;SDS011;45554;51.096;16.976;2022-12-13T00:01:56;13.90;;;7.50;;
59685;SDS011;45554;51.096;16.976;2022-12-13T00:04:24;13.70;;;7.60;;
59685;SDS011;45554;51.096;16.976;2022-12-13T00:06:52;12.60;;;6.30;;
59685;SDS011;45554;51.096;16.976;2022-12-13T00:09:20;14.60;;;7.60;;
59685;SDS011;45554;51.096;16.976;2022-12-13T00:11:49;12.10;;;6.50;;
59685;SDS011;45554;51.096;16.976;2022-12-13T00:14:17;12.90;;;7.20;;
59685;SDS011;45554;51.096;16.976;2022-12-13T00:16:48;12.90;;;7.50;;
59685;SDS011;45554;51.096;16.976;2022-12-13T00:19:16;13.10;;;7.10;;
59685;SDS011;45554;51.096;16.976;2022-12-13T00:21:45;15.40;;;8.50;;
59685;SDS011;45554;51.096;16.976;2022-12-13T00:24:13;11.60;;;6.50;;
59685;SDS011;45554;51.096;16.976;2022-12-13T00:26:41;16.10;;;7.30;;
59685;SDS011;45554;51.096;16.976;2022-12-13T00:29:09;12.60;;;6.80;;
59685;SDS011;45554;51.096;16.976;2022-12-13T00:31:38;12.70;;;6.60;;
59685;SDS011;45554;51.096;16.976;2022-12-13T00:34:26;12.60;;;6.90;;
59685;SDS011;45554;51.096;16.976;2022-12-13T00:36:54;14.80;;;7.00;;
59685;SDS011;45554;51.096;16.976;2022-12-13T00:39:26;13.50;;;7.40;;
59685;SDS011;45554;51.096;16.976;2022-12-13T00:41:54;11.80;;;6.10;;
59685;SDS011;45554;51.096;16.976;2022-12-13T00:44:22;14.40;;;7.20;;
59685;SDS011;45554;51.096;16.976;2022-12-13T00:46:50;13.60;;;7.70;;
59685;SDS011;45554;51.096;16.976;2022-12-13T00:49:18;12.60;;;5.90;;
59685;SDS011;45554;51.096;16.976;2022-12-13T00:51:47;13.30;;;7.10;;
59685;SDS011;45554;51.096;16.976;2022-12-13T00:54:16;13.20;;;7.30;;
59685;SDS011;45554;51.096;16.976;2022-12-13T00:56:44;12.00;;;6.80;;
59685;SDS011;45554;51.096;16.976;2022-12-13T00:59:12;11.90;;;5.90;;
59685;SDS011;45554;51.096;16.976;2022-12-13T01:04:11;14.30;;;6.60;;
59685;SDS011;45554;51.096;16.976;2022-12-13T01:06:43;13.10;;;6.80;;
59685;SDS011;45554;51.096;16.976;2022-12-13T01:09:17;10.40;;;5.70;;
59685;SDS011;45554;51.096;16.976;2022-12-13T01:11:49;13.90;;;7.00;;
59685;SDS011;45554;51.096;16.976;2022-12-13T01:14:25;13.50;;;6.90;;
59685;SDS011;45554;51.096;16.976;2022-12-13T01:16:55;13.50;;;6.60;;
59685;SDS011;45554;51.096;16.976;2022-12-13T01:19:24;12.90;;;6.50;;
59685;SDS011;45554;51.096;16.976;2022-12-13T01:22:01;13.20;;;6.70;;
59685;SDS011;45554;51.096;16.976;2022-12-13T01:24:33;14.30;;;7.60;;
59685;SDS011;45554;51.096;16.976;2022-12-13T01:27:04;12.10;;;6.20;;
59685;SDS011;45554;51.096;16.976;2022-12-13T01:29:35;14.30;;;7.20;;
59685;SDS011;45554;51.096;16.976;2022-12-13T01:32:06;13.60;;;7.10;;
59685;SDS011;45554;51.096;16.976;2022-12-13T01:34:35;14.20;;;6.70;;
59685;SDS011;45554;51.096;16.976;2022-12-13T01:37:04;12.60;;;6.00;;
59685;SDS011;45554;51.096;16.976;2022-12-13T01:39:34;11.60;;;5.90;;
59685;SDS011;45554;51.096;16.976;2022-12-13T01:42:05;14.10;;;7.20;;
59685;SDS011;45554;51.096;16.976;2022-12-13T01:50:10;12.90;;;6.80;;
59685;SDS011;45554;51.096;16.976;2022-12-13T01:52:44;15.50;;;7.20;;
59685;SDS011;45554;51.096;16.976;2022-12-13T01:55:16;11.30;;;6.10;;
59685;SDS011;45554;51.096;16.976;2022-12-13T01:57:47;13.10;;;6.80;;
59685;SDS011;45554;51.096;16.976;2022-12-13T02:00:18;11.30;;;5.80;;
59685;SDS011;45554;51.096;16.976;2022-12-13T02:02:46;24.30;;;13.10;;
59685;SDS011;45554;51.096;16.976;2022-12-13T02:07:54;11.80;;;6.70;;
59685;SDS011;45554;51.096;16.976;2022-12-13T02:10:25;12.80;;;6.70;;
59685;SDS011;45554;51.096;16.976;2022-12-13T02:12:54;10.10;;;5.50;;
59685;SDS011;45554;51.096;16.976;2022-12-13T02:15:23;14.00;;;7.90;;
59685;SDS011;45554;51.096;16.976;2022-12-13T02:18:02;11.20;;;6.10;;
59685;SDS011;45554;51.096;16.976;2022-12-13T02:20:58;13.60;;;6.80;;
59685;SDS011;45554;51.096;16.976;2022-12-13T02:23:34;13.40;;;6.80;;
59685;SDS011;45554;51.096;16.976;2022-12-13T02:26:28;12.90;;;6.40;;
59685;SDS011;45554;51.096;16.976;2022-12-13T02:34:56;12.00;;;6.50;;
59685;SDS011;45554;51.096;16.976;2022-12-13T02:37:37;13.20;;;6.80;;
59685;SDS011;45554;51.096;16.976;2022-12-13T02:45:52;13.20;;;6.80;;
59685;SDS011;45554;51.096;16.976;2022-12-13T02:48:30;11.90;;;5.50;;
59685;SDS011;45554;51.096;16.976;2022-12-13T02:51:04;13.40;;;7.30;;
59685;SDS011;45554;51.096;16.976;2022-12-13T02:53:34;11.20;;;5.60;;
59685;SDS011;45554;51.096;16.976;2022-12-13T02:56:03;10.00;;;4.90;;
59685;SDS011;45554;51.096;16.976;2022-12-13T02:58:33;12.60;;;6.80;;
59685;SDS011;45554;51.096;16.976;2022-12-13T03:04:08;12.20;;;6.40;;
59685;SDS011;45554;51.096;16.976;2022-12-13T03:07:01;11.90;;;6.30;;
59685;SDS011;45554;51.096;16.976;2022-12-13T03:09:36;12.40;;;5.80;;
59685;SDS011;45554;51.096;16.976;2022-12-13T03:18:08;11.30;;;6.10;;
59685;SDS011;45554;51.096;16.976;2022-12-13T03:20:45;12.10;;;5.70;;
59685;SDS011;45554;51.096;16.976;2022-12-13T03:23:20;11.00;;;6.00;;
59685;SDS011;45554;51.096;16.976;2022-12-13T03:25:52;13.50;;;7.30;;
59685;SDS011;45554;51.096;16.976;2022-12-13T03:28:23;12.80;;;5.90;;
59685;SDS011;45554;51.096;16.976;2022-12-13T03:30:52;11.70;;;5.70;;
59685;SDS011;45554;51.096;16.976;2022-12-13T03:35:51;15.90;;;7.20;;
59685;SDS011;45554;51.096;16.976;2022-12-13T03:38:19;10.40;;;5.40;;
59685;SDS011;45554;51.096;16.976;2022-12-13T03:40:55;11.30;;;5.40;;
59685;SDS011;45554;51.096;16.976;2022-12-13T03:43:26;10.70;;;5.20;;
59685;SDS011;45554;51.096;16.976;2022-12-13T03:45:55;13.30;;;6.30;;
59685;SDS011;45554;51.096;16.976;2022-12-13T03:48:29;11.10;;;5.80;;
59685;SDS011;45554;51.096;16.976;2022-12-13T03:50:57;14.40;;;5.80;;
59685;SDS011;45554;51.096;16.976;2022-12-13T03:53:27;13.10;;;5.90;;
59685;SDS011;45554;51.096;16.976;2022-12-13T03:56:02;11.00;;;5.80;;
59685;SDS011;45554;51.096;16.976;2022-12-13T03:58:32;11.10;;;5.70;;
59685;SDS011;45554;51.096;16.976;2022-12-13T04:01:05;12.90;;;6.40;;
59685;SDS011;45554;51.096;16.976;2022-12-13T04:03:36;11.50;;;5.30;;
59685;SDS011;45554;51.096;16.976;2022-12-13T04:06:08;10.60;;;5.00;;
59685;SDS011;45554;51.096;16.976;2022-12-13T04:08:37;12.30;;;5.90;;
59685;SDS011;45554;51.096;16.976;2022-12-13T04:11:06;10.40;;;5.30;;
59685;SDS011;45554;51.096;16.976;2022-12-13T04:13:56;9.10;;;4.80;;
59685;SDS011;45554;51.096;16.976;2022-12-13T04:16:26;9.90;;;5.30;;
59685;SDS011;45554;51.096;16.976;2022-12-13T04:18:55;8.60;;;4.50;;
59685;SDS011;45554;51.096;16.976;2022-12-13T04:21:24;11.50;;;5.20;;
59685;SDS011;45554;51.096;16.976;2022-12-13T04:23:52;10.30;;;5.80;;
59685;SDS011;45554;51.096;16.976;2022-12-13T04:26:21;11.50;;;5.90;;
59685;SDS011;45554;51.096;16.976;2022-12-13T04:28:49;9.70;;;5.30;;
59685;SDS011;45554;51.096;16.976;2022-12-13T04:31:21;12.20;;;6.20;;
59685;SDS011;45554;51.096;16.976;2022-12-13T04:33:50;11.30;;;5.20;;
59685;SDS011;45554;51.096;16.976;2022-12-13T04:36:18;11.20;;;5.40;;
59685;SDS011;45554;51.096;16.976;2022-12-13T04:39:02;11.40;;;5.90;;
59685;SDS011;45554;51.096;16.976;2022-12-13T04:41:50;9.80;;;5.30;;
59685;SDS011;45554;51.096;16.976;2022-12-13T04:44:19;11.40;;;5.90;;
59685;SDS011;45554;51.096;16.976;2022-12-13T04:46:56;12.90;;;6.20;;
59685;SDS011;45554;51.096;16.976;2022-12-13T04:49:28;10.60;;;5.60;;
59685;SDS011;45554;51.096;16.976;2022-12-13T04:51:56;14.30;;;7.90;;
59685;SDS011;45554;51.096;16.976;2022-12-13T04:54:29;16.00;;;12.00;;
59685;SDS011;45554;51.096;16.976;2022-12-13T04:57:06;15.20;;;12.10;;
59685;SDS011;45554;51.096;16.976;2022-12-13T04:59:37;13.30;;;9.90;;
59685;SDS011;45554;51.096;16.976;2022-12-13T05:02:09;18.40;;;9.50;;
59685;SDS011;45554;51.096;16.976;2022-12-13T05:04:37;11.60;;;6.00;;
59685;SDS011;45554;51.096;16.976;2022-12-13T05:07:05;13.30;;;6.70;;
59685;SDS011;45554;51.096;16.976;2022-12-13T05:09:34;13.60;;;6.30;;
59685;SDS011;45554;51.096;16.976;2022-12-13T05:12:02;13.20;;;6.30;;
59685;SDS011;45554;51.096;16.976;2022-12-13T05:14:50;15.90;;;8.60;;
59685;SDS011;45554;51.096;16.976;2022-12-13T05:17:20;13.90;;;6.90;;
59685;SDS011;45554;51.096;16.976;2022-12-13T05:19:49;12.70;;;7.00;;
59685;SDS011;45554;51.096;16.976;2022-12-13T05:22:18;15.00;;;7.50;;
59685;SDS011;45554;51.096;16.976;2022-12-13T05:24:48;16.20;;;7.90;;
59685;SDS011;45554;51.096;16.976;2022-12-13T05:27:16;27.00;;;16.90;;
59685;SDS011;45554;51.096;16.976;2022-12-13T05:29:55;13.50;;;7.00;;
59685;SDS011;45554;51.096;16.976;2022-12-13T05:32:44;17.60;;;8.40;;
59685;SDS011;45554;51.096;16.976;2022-12-13T05:35:12;15.40;;;7.60;;
59685;SDS011;45554;51.096;16.976;2022-12-13T05:37:50;18.70;;;8.20;;
59685;SDS011;45554;51.096;16.976;2022-12-13T05:40:22;16.30;;;8.10;;
59685;SDS011;45554;51.096;16.976;2022-12-13T05:42:51;17.90;;;10.30;;
59685;SDS011;45554;51.096;16.976;2022-12-13T05:45:31;16.20;;;7.70;;
59685;SDS011;45554;51.096;16.976;2022-12-13T05:48:02;16.90;;;9.20;;
59685;SDS011;45554;51.096;16.976;2022-12-13T05:50:31;18.50;;;8.80;;
59685;SDS011;45554;51.096;16.976;2022-12-13T05:52:59;17.80;;;8.50;;
59685;SDS011;45554;51.096;16.976;2022-12-13T05:55:27;17.40;;;9.80;;
59685;SDS011;45554;51.096;16.976;2022-12-13T05:57:57;15.90;;;8.40;;
59685;SDS011;45554;51.096;16.976;2022-12-13T06:00:30;18.10;;;9.30;;
59685;SDS011;45554;51.096;16.976;2022-12-13T06:02:58;17.70;;;9.00;;
59685;SDS011;45554;51.096;16.976;2022-12-13T06:05:29;18.20;;;8.70;;
59685;SDS011;45554;51.096;16.976;2022-12-13T06:07:59;17.50;;;8.10;;
59685;SDS011;45554;51.096;16.976;2022-12-13T06:10:28;16.10;;;8.30;;
59685;SDS011;45554;51.096;16.976;2022-12-13T06:13:02;18.70;;;8.60;;
59685;SDS011;45554;51.096;16.976;2022-12-13T06:15:52;17.50;;;8.20;;
59685;SDS011;45554;51.096;16.976;2022-12-13T06:18:32;17.80;;;9.50;;
59685;SDS011;45554;51.096;16.976;2022-12-13T06:21:04;17.10;;;8.70;;
59685;SDS011;45554;51.096;16.976;2022-12-13T06:23:34;16.70;;;8.20;;
59685;SDS011;45554;51.096;16.976;2022-12-13T06:26:05;17.30;;;9.10;;
59685;SDS011;45554;51.096;16.976;2022-12-13T06:28:34;19.20;;;9.40;;
59685;SDS011;45554;51.096;16.976;2022-12-13T06:31:02;15.30;;;8.10;;
59685;SDS011;45554;51.096;16.976;2022-12-13T06:36:03;15.80;;;8.60;;
59685;SDS011;45554;51.096;16.976;2022-12-13T06:38:32;14.40;;;7.80;;
59685;SDS011;45554;51.096;16.976;2022-12-13T06:41:10;15.30;;;8.40;;
59685;SDS011;45554;51.096;16.976;2022-12-13T06:43:42;14.50;;;7.50;;
59685;SDS011;45554;51.096;16.976;2022-12-13T06:46:12;14.60;;;7.90;;
59685;SDS011;45554;51.096;16.976;2022-12-13T06:48:43;14.30;;;7.60;;
59685;SDS011;45554;51.096;16.976;2022-12-13T06:51:12;16.50;;;7.60;;
59685;SDS011;45554;51.096;16.976;2022-12-13T06:53:49;13.70;;;6.90;;
59685;SDS011;45554;51.096;16.976;2022-12-13T06:56:18;14.70;;;7.70;;
59685;SDS011;45554;51.096;16.976;2022-12-13T06:58:46;17.50;;;8.10;;
59685;SDS011;45554;51.096;16.976;2022-12-13T07:01:15;14.20;;;7.40;;
59685;SDS011;45554;51.096;16.976;2022-12-13T07:03:54;16.10;;;8.10;;
59685;SDS011;45554;51.096;16.976;2022-12-13T07:06:24;18.90;;;9.00;;
59685;SDS011;45554;51.096;16.976;2022-12-13T07:08:54;18.50;;;9.40;;
59685;SDS011;45554;51.096;16.976;2022-12-13T07:11:27;16.00;;;8.50;;
59685;SDS011;45554;51.096;16.976;2022-12-13T07:13:58;19.20;;;9.70;;
59685;SDS011;45554;51.096;16.976;2022-12-13T07:16:27;18.00;;;8.70;;
59685;SDS011;45554;51.096;16.976;2022-12-13T07:18:56;18.30;;;9.30;;
59685;SDS011;45554;51.096;16.976;2022-12-13T07:21:28;18.50;;;9.70;;
59685;SDS011;45554;51.096;16.976;2022-12-13T07:23:58;17.20;;;9.00;;
59685;SDS011;45554;51.096;16.976;2022-12-13T07:26:26;20.00;;;11.10;;
59685;SDS011;45554;51.096;16.976;2022-12-13T07:28:54;20.30;;;10.00;;
59685;SDS011;45554;51.096;16.976;2022-12-13T07:31:23;22.60;;;12.10;;
59685;SDS011;45554;51.096;16.976;2022-12-13T07:33:53;21.60;;;10.60;;
59685;SDS011;45554;51.096;16.976;2022-12-13T07:36:22;19.60;;;9.30;;
59685;SDS011;45554;51.096;16.976;2022-12-13T07:38:50;20.70;;;10.90;;
59685;SDS011;45554;51.096;16.976;2022-12-13T07:41:23;19.50;;;9.80;;
59685;SDS011;45554;51.096;16.976;2022-12-13T07:43:55;19.10;;;9.70;;
59685;SDS011;45554;51.096;16.976;2022-12-13T07:46:23;19.70;;;10.30;;
59685;SDS011;45554;51.096;16.976;2022-12-13T07:49:00;18.10;;;9.50;;
59685;SDS011;45554;51.096;16.976;2022-12-13T07:51:31;19.80;;;9.70;;
59685;SDS011;45554;51.096;16.976;2022-12-13T07:54:01;18.00;;;9.90;;
59685;SDS011;45554;51.096;16.976;2022-12-13T07:56:34;17.90;;;10.10;;
59685;SDS011;45554;51.096;16.976;2022-12-13T08:01:31;19.60;;;10.90;;
59685;SDS011;45554;51.096;16.976;2022-12-13T08:04:09;21.00;;;11.30;;
59685;SDS011;45554;51.096;16.976;2022-12-13T08:06:37;19.80;;;9.60;;
59685;SDS011;45554;51.096;16.976;2022-12-13T08:09:06;20.00;;;9.70;;
59685;SDS011;45554;51.096;16.976;2022-12-13T08:11:36;20.40;;;9.70;;
59685;SDS011;45554;51.096;16.976;2022-12-13T08:14:15;18.90;;;9.90;;
59685;SDS011;45554;51.096;16.976;2022-12-13T08:16:45;17.90;;;9.20;;
59685;SDS011;45554;51.096;16.976;2022-12-13T08:19:14;21.70;;;10.40;;
59685;SDS011;45554;51.096;16.976;2022-12-13T08:21:43;18.30;;;9.60;;
59685;SDS011;45554;51.096;16.976;2022-12-13T08:24:23;18.50;;;9.70;;
59685;SDS011;45554;51.096;16.976;2022-12-13T08:26:54;19.40;;;10.00;;
59685;SDS011;45554;51.096;16.976;2022-12-13T08:29:24;18.50;;;9.40;;
59685;SDS011;45554;51.096;16.976;2022-12-13T08:32:03;17.40;;;9.50;;
59685;SDS011;45554;51.096;16.976;2022-12-13T08:34:36;17.70;;;10.10;;
59685;SDS011;45554;51.096;16.976;2022-12-13T08:37:04;18.50;;;8.80;;
59685;SDS011;45554;51.096;16.976;2022-12-13T08:39:33;17.70;;;8.90;;
59685;SDS011;45554;51.096;16.976;2022-12-13T08:42:05;14.00;;;8.60;;
59685;SDS011;45554;51.096;16.976;2022-12-13T08:44:45;17.60;;;8.70;;
59685;SDS011;45554;51.096;16.976;2022-12-13T08:47:15;15.20;;;8.50;;
59685;SDS011;45554;51.096;16.976;2022-12-13T08:49:52;15.80;;;8.60;;
59685;SDS011;45554;51.096;16.976;2022-12-13T08:54:50;15.80;;;7.50;;
59685;SDS011;45554;51.096;16.976;2022-12-13T08:57:19;15.80;;;7.70;;
59685;SDS011;45554;51.096;16.976;2022-12-13T08:59:47;16.90;;;8.10;;
59685;SDS011;45554;51.096;16.976;2022-12-13T09:02:16;14.70;;;7.20;;
59685;SDS011;45554;51.096;16.976;2022-12-13T09:04:44;16.30;;;8.30;;
59685;SDS011;45554;51.096;16.976;2022-12-13T09:07:14;14.50;;;8.10;;
59685;SDS011;45554;51.096;16.976;2022-12-13T09:09:43;15.00;;;8.00;;
59685;SDS011;45554;51.096;16.976;2022-12-13T09:12:10;13.10;;;7.30;;
59685;SDS011;45554;51.096;16.976;2022-12-13T09:15:00;14.80;;;7.20;;
59685;SDS011;45554;51.096;16.976;2022-12-13T09:17:29;14.50;;;7.50;;
59685;SDS011;45554;51.096;16.976;2022-12-13T09:20:07;13.00;;;6.80;;
59685;SDS011;45554;51.096;16.976;2022-12-13T09:22:57;13.40;;;7.20;;
59685;SDS011;45554;51.096;16.976;2022-12-13T09:25:29;13.10;;;7.60;;
59685;SDS011;45554;51.096;16.976;2022-12-13T09:28:05;14.10;;;7.30;;
59685;SDS011;45554;51.096;16.976;2022-12-13T09:30:37;13.50;;;6.20;;
59685;SDS011;45554;51.096;16.976;2022-12-13T09:33:05;12.30;;;6.50;;
59685;SDS011;45554;51.096;16.976;2022-12-13T09:35:57;12.00;;;6.20;;
59685;SDS011;45554;51.096;16.976;2022-12-13T09:38:27;11.70;;;5.70;;
59685;SDS011;45554;51.096;16.976;2022-12-13T09:41:07;15.50;;;7.90;;
59685;SDS011;45554;51.096;16.976;2022-12-13T09:43:57;12.50;;;6.70;;
59685;SDS011;45554;51.096;16.976;2022-12-13T09:46:36;14.00;;;7.30;;
59685;SDS011;45554;51.096;16.976;2022-12-13T09:49:37;12.90;;;7.50;;
59685;SDS011;45554;51.096;16.976;2022-12-13T09:52:11;13.00;;;5.60;;
59685;SDS011;45554;51.096;16.976;2022-12-13T09:54:55;11.60;;;6.00;;
59685;SDS011;45554;51.096;16.976;2022-12-13T09:57:26;12.80;;;6.80;;
59685;SDS011;45554;51.096;16.976;2022-12-13T10:00:01;14.40;;;6.90;;
59685;SDS011;45554;51.096;16.976;2022-12-13T10:02:48;12.60;;;7.30;;
59685;SDS011;45554;51.096;16.976;2022-12-13T10:08:14;13.00;;;6.10;;
59685;SDS011;45554;51.096;16.976;2022-12-13T10:11:03;13.90;;;6.50;;
59685;SDS011;45554;51.096;16.976;2022-12-13T10:19:14;12.60;;;6.40;;
59685;SDS011;45554;51.096;16.976;2022-12-13T10:21:57;13.90;;;6.50;;
59685;SDS011;45554;51.096;16.976;2022-12-13T10:24:46;13.60;;;7.20;;
59685;SDS011;45554;51.096;16.976;2022-12-13T10:27:14;14.30;;;7.80;;
59685;SDS011;45554;51.096;16.976;2022-12-13T10:29:55;10.80;;;6.70;;
59685;SDS011;45554;51.096;16.976;2022-12-13T10:32:24;11.70;;;5.80;;
59685;SDS011;45554;51.096;16.976;2022-12-13T10:34:53;12.40;;;6.50;;
59685;SDS011;45554;51.096;16.976;2022-12-13T10:39:50;11.10;;;6.00;;
59685;SDS011;45554;51.096;16.976;2022-12-13T10:42:19;17.80;;;9.90;;
59685;SDS011;45554;51.096;16.976;2022-12-13T10:45:06;15.60;;;9.80;;
59685;SDS011;45554;51.096;16.976;2022-12-13T10:47:37;12.70;;;6.60;;
59685;SDS011;45554;51.096;16.976;2022-12-13T10:50:23;11.90;;;6.70;;
59685;SDS011;45554;51.096;16.976;2022-12-13T10:52:54;13.30;;;6.70;;
59685;SDS011;45554;51.096;16.976;2022-12-13T10:55:34;13.60;;;7.00;;
59685;SDS011;45554;51.096;16.976;2022-12-13T10:58:07;12.30;;;6.90;;
59685;SDS011;45554;51.096;16.976;2022-12-13T11:00:46;11.70;;;6.70;;
59685;SDS011;45554;51.096;16.976;2022-12-13T11:03:29;13.90;;;7.20;;
59685;SDS011;45554;51.096;16.976;2022-12-13T11:08:40;11.00;;;6.20;;
59685;SDS011;45554;51.096;16.976;2022-12-13T11:11:09;12.90;;;6.00;;
59685;SDS011;45554;51.096;16.976;2022-12-13T11:13:45;12.40;;;6.20;;
59685;SDS011;45554;51.096;16.976;2022-12-13T11:19:04;11.70;;;6.10;;
59685;SDS011;45554;51.096;16.976;2022-12-13T11:21:46;10.00;;;5.20;;
59685;SDS011;45554;51.096;16.976;2022-12-13T11:24:19;13.50;;;6.20;;
59685;SDS011;45554;51.096;16.976;2022-12-13T11:30:07;12.00;;;5.80;;
59685;SDS011;45554;51.096;16.976;2022-12-13T11:35:40;10.20;;;5.00;;
59685;SDS011;45554;51.096;16.976;2022-12-13T11:41:07;11.10;;;6.10;;
59685;SDS011;45554;51.096;16.976;2022-12-13T11:44:09;11.90;;;6.50;;
59685;SDS011;45554;51.096;16.976;2022-12-13T11:46:50;11.00;;;5.60;;
59685;SDS011;45554;51.096;16.976;2022-12-13T11:49:31;10.60;;;5.70;;
59685;SDS011;45554;51.096;16.976;2022-12-13T11:52:10;10.30;;;5.20;;
59685;SDS011;45554;51.096;16.976;2022-12-13T11:57:30;11.40;;;5.80;;
59685;SDS011;45554;51.096;16.976;2022-12-13T12:03:17;12.10;;;6.20;;
59685;SDS011;45554;51.096;16.976;2022-12-13T12:06:03;9.70;;;5.40;;
59685;SDS011;45554;51.096;16.976;2022-12-13T12:09:00;10.50;;;6.00;;
59685;SDS011;45554;51.096;16.976;2022-12-13T12:11:41;11.60;;;5.80;;
59685;SDS011;45554;51.096;16.976;2022-12-13T12:14:55;11.10;;;6.00;;
59685;SDS011;45554;51.096;16.976;2022-12-13T12:18:15;10.40;;;5.20;;
59685;SDS011;45554;51.096;16.976;2022-12-13T12:26:21;11.40;;;6.30;;
59685;SDS011;45554;51.096;16.976;2022-12-13T12:29:13;10.20;;;5.30;;
59685;SDS011;45554;51.096;16.976;2022-12-13T12:32:17;12.20;;;5.90;;
59685;SDS011;45554;51.096;16.976;2022-12-13T12:37:51;10.30;;;5.50;;
59685;SDS011;45554;51.096;16.976;2022-12-13T12:40:31;9.10;;;5.50;;
59685;SDS011;45554;51.096;16.976;2022-12-13T12:46:00;10.40;;;5.80;;
59685;SDS011;45554;51.096;16.976;2022-12-13T12:59:36;10.20;;;5.00;;
59685;SDS011;45554;51.096;16.976;2022-12-13T13:02:17;12.60;;;5.80;;
59685;SDS011;45554;51.096;16.976;2022-12-13T13:04:56;10.30;;;5.40;;
59685;SDS011;45554;51.096;16.976;2022-12-13T13:07:32;9.70;;;5.10;;
59685;SDS011;45554;51.096;16.976;2022-12-13T13:10:07;11.30;;;4.70;;
59685;SDS011;45554;51.096;16.976;2022-12-13T13:12:53;12.10;;;5.40;;
59685;SDS011;45554;51.096;16.976;2022-12-13T13:18:54;9.70;;;5.20;;
59685;SDS011;45554;51.096;16.976;2022-12-13T13:21:25;11.30;;;4.50;;
59685;SDS011;45554;51.096;16.976;2022-12-13T13:24:25;10.60;;;4.80;;
59685;SDS011;45554;51.096;16.976;2022-12-13T13:26:55;10.40;;;4.80;;
59685;SDS011;45554;51.096;16.976;2022-12-13T13:29:28;12.30;;;5.00;;
59685;SDS011;45554;51.096;16.976;2022-12-13T13:35:46;9.00;;;4.40;;
59685;SDS011;45554;51.096;16.976;2022-12-13T13:38:04;11.40;;;4.10;;
59685;SDS011;45554;51.096;16.976;2022-12-13T13:40:55;7.10;;;3.70;;
59685;SDS011;45554;51.096;16.976;2022-12-13T13:43:27;7.80;;;3.60;;
59685;SDS011;45554;51.096;16.976;2022-12-13T13:46:09;8.70;;;4.30;;
59685;SDS011;45554;51.096;16.976;2022-12-13T14:01:29;8.60;;;4.20;;
59685;SDS011;45554;51.096;16.976;2022-12-13T14:03:57;11.10;;;4.70;;
59685;SDS011;45554;51.096;16.976;2022-12-13T14:16:30;10.90;;;4.70;;
59685;SDS011;45554;51.096;16.976;2022-12-13T14:30:40;12.80;;;6.20;;
59685;SDS011;45554;51.096;16.976;2022-12-13T14:33:24;12.40;;;5.10;;
59685;SDS011;45554;51.096;16.976;2022-12-13T14:35:57;13.50;;;6.00;;
59685;SDS011;45554;51.096;16.976;2022-12-13T14:38:29;8.90;;;4.60;;
59685;SDS011;45554;51.096;16.976;2022-12-13T14:41:00;11.40;;;5.70;;
59685;SDS011;45554;51.096;16.976;2022-12-13T14:46:02;12.10;;;5.60;;
59685;SDS011;45554;51.096;16.976;2022-12-13T14:48:36;17.60;;;6.60;;
59685;SDS011;45554;51.096;16.976;2022-12-13T14:51:31;13.80;;;6.50;;
59685;SDS011;45554;51.096;16.976;2022-12-13T14:54:03;15.30;;;7.30;;
59685;SDS011;45554;51.096;16.976;2022-12-13T14:56:33;19.60;;;8.10;;
59685;SDS011;45554;51.096;16.976;2022-12-13T14:59:02;14.60;;;6.80;;
59685;SDS011;45554;51.096;16.976;2022-12-13T15:01:44;18.10;;;7.00;;
59685;SDS011;45554;51.096;16.976;2022-12-13T15:04:33;14.20;;;7.20;;
59685;SDS011;45554;51.096;16.976;2022-12-13T15:07:12;15.80;;;7.10;;
59685;SDS011;45554;51.096;16.976;2022-12-13T15:09:53;12.40;;;6.50;;
59685;SDS011;45554;51.096;16.976;2022-12-13T15:12:24;15.20;;;7.30;;
59685;SDS011;45554;51.096;16.976;2022-12-13T15:15:01;14.80;;;6.80;;
59685;SDS011;45554;51.096;16.976;2022-12-13T15:17:37;16.50;;;7.00;;
59685;SDS011;45554;51.096;16.976;2022-12-13T15:20:20;15.30;;;6.90;;
59685;SDS011;45554;51.096;16.976;2022-12-13T15:23:01;11.20;;;6.20;;
59685;SDS011;45554;51.096;16.976;2022-12-13T15:25:35;13.70;;;6.20;;
59685;SDS011;45554;51.096;16.976;2022-12-13T15:28:05;17.50;;;7.50;;
59685;SDS011;45554;51.096;16.976;2022-12-13T15:30:34;16.90;;;8.30;;
59685;SDS011;45554;51.096;16.976;2022-12-13T15:33:14;15.40;;;7.40;;
59685;SDS011;45554;51.096;16.976;2022-12-13T15:35:46;14.50;;;7.40;;
59685;SDS011;45554;51.096;16.976;2022-12-13T15:38:18;15.60;;;8.70;;
59685;SDS011;45554;51.096;16.976;2022-12-13T15:40:56;19.80;;;9.30;;
59685;SDS011;45554;51.096;16.976;2022-12-13T15:43:30;21.80;;;10.10;;
59685;SDS011;45554;51.096;16.976;2022-12-13T15:46:05;21.10;;;10.60;;
59685;SDS011;45554;51.096;16.976;2022-12-13T15:48:41;22.50;;;11.50;;
59685;SDS011;45554;51.096;16.976;2022-12-13T15:51:16;24.80;;;11.40;;
59685;SDS011;45554;51.096;16.976;2022-12-13T15:56:57;22.70;;;10.80;;
59685;SDS011;45554;51.096;16.976;2022-12-13T15:59:37;19.40;;;10.90;;
59685;SDS011;45554;51.096;16.976;2022-12-13T16:04:44;19.80;;;10.10;;
59685;SDS011;45554;51.096;16.976;2022-12-13T16:09:53;19.90;;;10.40;;
59685;SDS011;45554;51.096;16.976;2022-12-13T16:15:04;17.90;;;8.70;;
59685;SDS011;45554;51.096;16.976;2022-12-13T16:17:48;20.40;;;9.50;;
59685;SDS011;45554;51.096;16.976;2022-12-13T16:20:18;21.20;;;9.20;;
59685;SDS011;45554;51.096;16.976;2022-12-13T16:22:48;18.10;;;9.00;;
59685;SDS011;45554;51.096;16.976;2022-12-13T16:25:17;23.50;;;10.60;;
59685;SDS011;45554;51.096;16.976;2022-12-13T16:27:47;23.90;;;10.20;;
59685;SDS011;45554;51.096;16.976;2022-12-13T16:30:23;22.20;;;10.40;;
59685;SDS011;45554;51.096;16.976;2022-12-13T16:32:53;22.60;;;12.10;;
59685;SDS011;45554;51.096;16.976;2022-12-13T16:35:43;29.60;;;12.40;;
59685;SDS011;45554;51.096;16.976;2022-12-13T16:38:11;21.50;;;11.30;;
59685;SDS011;45554;51.096;16.976;2022-12-13T16:40:54;25.40;;;12.70;;
59685;SDS011;45554;51.096;16.976;2022-12-13T16:43:25;25.80;;;12.90;;
59685;SDS011;45554;51.096;16.976;2022-12-13T16:46:02;25.70;;;13.00;;
59685;SDS011;45554;51.096;16.976;2022-12-13T16:48:51;29.00;;;14.10;;
59685;SDS011;45554;51.096;16.976;2022-12-13T16:51:20;28.80;;;13.70;;
59685;SDS011;45554;51.096;16.976;2022-12-13T16:53:49;28.50;;;13.50;;
59685;SDS011;45554;51.096;16.976;2022-12-13T16:56:17;36.80;;;16.10;;
59685;SDS011;45554;51.096;16.976;2022-12-13T16:58:48;36.10;;;16.40;;
59685;SDS011;45554;51.096;16.976;2022-12-13T17:01:18;38.40;;;16.00;;
59685;SDS011;45554;51.096;16.976;2022-12-13T17:03:47;37.60;;;16.60;;
59685;SDS011;45554;51.096;16.976;2022-12-13T17:06:16;36.00;;;16.60;;
59685;SDS011;45554;51.096;16.976;2022-12-13T17:08:49;34.30;;;16.10;;
59685;SDS011;45554;51.096;16.976;2022-12-13T17:11:17;30.60;;;15.90;;
59685;SDS011;45554;51.096;16.976;2022-12-13T17:13:46;34.30;;;15.10;;
59685;SDS011;45554;51.096;16.976;2022-12-13T17:16:15;32.50;;;16.10;;
59685;SDS011;45554;51.096;16.976;2022-12-13T17:18:44;25.60;;;13.60;;
59685;SDS011;45554;51.096;16.976;2022-12-13T17:21:12;28.90;;;15.80;;
59685;SDS011;45554;51.096;16.976;2022-12-13T17:23:40;31.10;;;14.80;;
59685;SDS011;45554;51.096;16.976;2022-12-13T17:26:10;30.70;;;15.50;;
59685;SDS011;45554;51.096;16.976;2022-12-13T17:28:38;25.60;;;13.50;;
59685;SDS011;45554;51.096;16.976;2022-12-13T17:31:07;25.00;;;13.10;;